Xunlong5 — BYGW — position and weather

sailwx.info

Track history (hours):
 
Tides and Currents Weather Stations Pressure Air Temp Water Temp Dewpoint Dewpoint Depression Visibility Wind Speed Wind Dir Waves Ship Positions

Xunlong5

Last reported at 2015-Sep-03 10:33 UTC. Time now 2015-Sep-04 05:55 UTC.
Position N 22°10' E 113°35'.

Length 34 m; draft 1.4 m.

Type: High speed craft. MMSI: 413471870.

Date/timePositionNaut miles runAvg speedWind from/ knotsBaromVisibWave heightAir tempDewpointWater temp
2015-Sep-03 10:33N 22°10' E 113°35'9 3.8
2015-Sep-03 08:18N 22°17' E 113°39'810.1
2015-Sep-03 07:33N 22°12' E 113°34'5 2.3
2015-Sep-03 05:13N 22°15' E 113°38'5 8.2
2015-Sep-03 04:33N 22°12' E 113°34'5 2.3
2015-Sep-03 02:12N 22°15' E 113°38'2 0.2
2015-Sep-02 11:28N 22°17' E 113°39'8 8.9
2015-Sep-02 10:33N 22°10' E 113°35'7 3.1
2015-Sep-02 08:14N 22°17' E 113°39'7 9.9
2015-Sep-02 07:33N 22°12' E 113°34'5 2.3
2015-Sep-02 05:15N 22°15' E 113°38'5 6.9
2015-Sep-02 04:29N 22°12' E 113°34'2322.4
2015-Sep-02 03:26N 22°32' E 113°46'1913.8
2015-Sep-02 02:06N 22°15' E 113°38'5 9.8
2015-Sep-02 01:33N 22°12' E 113°34'2019.0
2015-Sep-02 00:32N 22°29' E 113°45'15 1.1
2015-Sep-01 11:22N 22°15' E 113°38'6 7.6
2015-Sep-01 10:33N 22°10' E 113°35'2422.3
2015-Sep-01 09:29N 22°31' E 113°46'1611.0
2015-Sep-01 08:04N 22°17' E 113°39'713.1
2015-Sep-01 07:30N 22°12' E 113°34'1818.2
2015-Sep-01 06:32N 22°27' E 113°44'18 8.6
2015-Sep-01 04:28N 22°12' E 113°34'2022.3
2015-Sep-01 03:33N 22°30' E 113°45'1612.0
2015-Sep-01 02:15N 22°15' E 113°38'5 7.5
2015-Sep-01 01:33N 22°12' E 113°34'2322.8
2015-Sep-01 00:32N 22°32' E 113°46'16 1.3
2015-Aug-31 11:24N 22°17' E 113°39'8 8.9
2015-Aug-31 10:33N 22°10' E 113°35'16 7.9
2015-Aug-31 08:28N 22°25' E 113°43'1516.2
2015-Aug-31 07:31N 22°12' E 113°34'2324.4
2015-Aug-31 06:33N 22°32' E 113°46'1713.5
2015-Aug-31 05:18N 22°17' E 113°39'7 8.2
2015-Aug-31 04:30N 22°12' E 113°34'2223.1
2015-Aug-31 03:33N 22°31' E 113°45'1713.6
2015-Aug-31 02:18N 22°15' E 113°38'5 6.1
2015-Aug-31 01:27N 22°12' E 113°34'2022.3
2015-Aug-31 00:33N 22°29' E 113°45'15 1.1
2015-Aug-30 11:22N 22°15' E 113°38'6 7.5
2015-Aug-30 10:33N 22°10' E 113°35'2 0.7
2015-Aug-30 07:33N 22°12' E 113°34'0 0.0
2015-Aug-30 04:33N 22°12' E 113°34'5 2.3
2015-Aug-30 02:15N 22°15' E 113°38'5 7.6
2015-Aug-30 01:33N 22°12' E 113°34'5 0.4
2015-Aug-29 11:25N 22°15' E 113°38'6 7.1
2015-Aug-29 10:33N 22°10' E 113°35'2 0.7
2015-Aug-29 07:32N 22°12' E 113°34'0 0.0
2015-Aug-29 04:32N 22°12' E 113°34'0 0.0
2015-Aug-29 01:33N 22°12' E 113°34'5 0.4
2015-Aug-28 11:21N 22°15' E 113°38'6 7.6
2015-Aug-28 10:34N 22°10' E 113°35'2323.3
2015-Aug-28 09:33N 22°31' E 113°46'7 6.1
2015-Aug-28 08:24N 22°25' E 113°43'1514.2
2015-Aug-28 07:20N 22°12' E 113°34'1721.2
2015-Aug-28 06:33N 22°26' E 113°43'1 1.0
2015-Aug-28 05:27N 22°25' E 113°43'1516.2
2015-Aug-28 04:30N 22°12' E 113°34'2323.7
2015-Aug-28 03:32N 22°31' E 113°46'1813.5
2015-Aug-28 02:14N 22°15' E 113°38'5 7.9
2015-Aug-28 01:33N 22°12' E 113°34'2020.5
2015-Aug-28 00:33N 22°29' E 113°45'16 1.2
2015-Aug-27 11:19N 22°15' E 113°38'6 8.1
2015-Aug-27 10:33N 22°10' E 113°35'2321.8
2015-Aug-27 09:30N 22°31' E 113°46'2210.2
2015-Aug-27 07:21N 22°12' E 113°34'1721.8
2015-Aug-27 06:33N 22°26' E 113°44'2 1.8
2015-Aug-27 05:27N 22°24' E 113°43'1513.1
2015-Aug-27 04:17N 22°12' E 113°34'1723.7
2015-Aug-27 03:33N 22°27' E 113°44'13 8.7
2015-Aug-27 02:06N 22°15' E 113°38'5 9.4
2015-Aug-27 01:32N 22°12' E 113°34'2020.6
2015-Aug-27 00:33N 22°29' E 113°45'15 1.2
2015-Aug-26 11:24N 22°15' E 113°38'6 7.0
2015-Aug-26 10:33N 22°10' E 113°35'2423.9
2015-Aug-26 09:32N 22°32' E 113°46'2311.7
2015-Aug-26 07:33N 22°12' E 113°34'1414.2
2015-Aug-26 06:32N 22°24' E 113°42'1 0.9
2015-Aug-26 05:17N 22°25' E 113°43'1621.7
2015-Aug-26 04:33N 22°12' E 113°34'1716.3
2015-Aug-26 03:32N 22°26' E 113°43'12 7.9
2015-Aug-26 02:04N 22°15' E 113°38'5 7.7
2015-Aug-26 01:23N 22°12' E 113°34'2023.6
2015-Aug-26 00:33N 22°29' E 113°44'17 1.3
2015-Aug-25 11:28N 22°13' E 113°38'4 4.7
2015-Aug-25 10:33N 22°10' E 113°35'2424.4
2015-Aug-25 09:33N 22°32' E 113°46'8 6.9
2015-Aug-25 08:26N 22°25' E 113°43'1616.2
2015-Aug-25 07:29N 22°12' E 113°34'2324.1
2015-Aug-25 06:33N 22°31' E 113°46'9 9.2
2015-Aug-25 05:33N 22°23' E 113°42'1313.1
2015-Aug-25 04:32N 22°12' E 113°34'2625.6
2015-Aug-25 03:31N 22°34' E 113°48'2116.3
2015-Aug-25 02:15N 22°15' E 113°38'5 7.7
2015-Aug-25 01:34N 22°12' E 113°34'2121.2
2015-Aug-25 00:33N 22°30' E 113°45'16 1.2
2015-Aug-24 11:27N 22°16' E 113°38'7 8.0
2015-Aug-24 10:34N 22°10' E 113°35'  
Track history (hours):
 
Tides and Currents Weather Stations Pressure Air Temp Water Temp Dewpoint Dewpoint Depression Visibility Wind Speed Wind Dir Waves Ship Positions

Xunlong5

Last reported at 2015-Sep-03 10:33 UTC. Time now 2015-Sep-04 05:55 UTC.
Position N 22°10' E 113°35'.

Length 34 m; draft 1.4 m.

Type: High speed craft. MMSI: 413471870.

Date/timePositionNaut miles runAvg speedWind from/ knotsBaromVisibWave heightAir tempDewpointWater temp
2015-Sep-03 10:33N 22°10' E 113°35'9 3.8
2015-Sep-03 08:18N 22°17' E 113°39'810.1
2015-Sep-03 07:33N 22°12' E 113°34'5 2.3
2015-Sep-03 05:13N 22°15' E 113°38'5 8.2
2015-Sep-03 04:33N 22°12' E 113°34'5 2.3
2015-Sep-03 02:12N 22°15' E 113°38'2 0.2
2015-Sep-02 11:28N 22°17' E 113°39'8 8.9
2015-Sep-02 10:33N 22°10' E 113°35'7 3.1
2015-Sep-02 08:14N 22°17' E 113°39'7 9.9
2015-Sep-02 07:33N 22°12' E 113°34'5 2.3
2015-Sep-02 05:15N 22°15' E 113°38'5 6.9
2015-Sep-02 04:29N 22°12' E 113°34'2322.4
2015-Sep-02 03:26N 22°32' E 113°46'1913.8
2015-Sep-02 02:06N 22°15' E 113°38'5 9.8
2015-Sep-02 01:33N 22°12' E 113°34'2019.0
2015-Sep-02 00:32N 22°29' E 113°45'15 1.1
2015-Sep-01 11:22N 22°15' E 113°38'6 7.6
2015-Sep-01 10:33N 22°10' E 113°35'2422.3
2015-Sep-01 09:29N 22°31' E 113°46'1611.0
2015-Sep-01 08:04N 22°17' E 113°39'713.1
2015-Sep-01 07:30N 22°12' E 113°34'1818.2
2015-Sep-01 06:32N 22°27' E 113°44'18 8.6
2015-Sep-01 04:28N 22°12' E 113°34'2022.3
2015-Sep-01 03:33N 22°30' E 113°45'1612.0
2015-Sep-01 02:15N 22°15' E 113°38'5 7.5
2015-Sep-01 01:33N 22°12' E 113°34'2322.8
2015-Sep-01 00:32N 22°32' E 113°46'16 1.3
2015-Aug-31 11:24N 22°17' E 113°39'8 8.9
2015-Aug-31 10:33N 22°10' E 113°35'16 7.9
2015-Aug-31 08:28N 22°25' E 113°43'1516.2
2015-Aug-31 07:31N 22°12' E 113°34'2324.4
2015-Aug-31 06:33N 22°32' E 113°46'1713.5
2015-Aug-31 05:18N 22°17' E 113°39'7 8.2
2015-Aug-31 04:30N 22°12' E 113°34'2223.1
2015-Aug-31 03:33N 22°31' E 113°45'1713.6
2015-Aug-31 02:18N 22°15' E 113°38'5 6.1
2015-Aug-31 01:27N 22°12' E 113°34'2022.3
2015-Aug-31 00:33N 22°29' E 113°45'15 1.1
2015-Aug-30 11:22N 22°15' E 113°38'6 7.5
2015-Aug-30 10:33N 22°10' E 113°35'2 0.7
2015-Aug-30 07:33N 22°12' E 113°34'0 0.0
2015-Aug-30 04:33N 22°12' E 113°34'5 2.3
2015-Aug-30 02:15N 22°15' E 113°38'5 7.6
2015-Aug-30 01:33N 22°12' E 113°34'5 0.4
2015-Aug-29 11:25N 22°15' E 113°38'6 7.1
2015-Aug-29 10:33N 22°10' E 113°35'2 0.7
2015-Aug-29 07:32N 22°12' E 113°34'0 0.0
2015-Aug-29 04:32N 22°12' E 113°34'0 0.0
2015-Aug-29 01:33N 22°12' E 113°34'5 0.4
2015-Aug-28 11:21N 22°15' E 113°38'6 7.6
2015-Aug-28 10:34N 22°10' E 113°35'2323.3
2015-Aug-28 09:33N 22°31' E 113°46'7 6.1
2015-Aug-28 08:24N 22°25' E 113°43'1514.2
2015-Aug-28 07:20N 22°12' E 113°34'1721.2
2015-Aug-28 06:33N 22°26' E 113°43'1 1.0
2015-Aug-28 05:27N 22°25' E 113°43'1516.2
2015-Aug-28 04:30N 22°12' E 113°34'2323.7
2015-Aug-28 03:32N 22°31' E 113°46'1813.5
2015-Aug-28 02:14N 22°15' E 113°38'5 7.9
2015-Aug-28 01:33N 22°12' E 113°34'2020.5
2015-Aug-28 00:33N 22°29' E 113°45'16 1.2
2015-Aug-27 11:19N 22°15' E 113°38'6 8.1
2015-Aug-27 10:33N 22°10' E 113°35'2321.8
2015-Aug-27 09:30N 22°31' E 113°46'2210.2
2015-Aug-27 07:21N 22°12' E 113°34'1721.8
2015-Aug-27 06:33N 22°26' E 113°44'2 1.8
2015-Aug-27 05:27N 22°24' E 113°43'1513.1
2015-Aug-27 04:17N 22°12' E 113°34'1723.7
2015-Aug-27 03:33N 22°27' E 113°44'13 8.7
2015-Aug-27 02:06N 22°15' E 113°38'5 9.4
2015-Aug-27 01:32N 22°12' E 113°34'2020.6
2015-Aug-27 00:33N 22°29' E 113°45'15 1.2
2015-Aug-26 11:24N 22°15' E 113°38'6 7.0
2015-Aug-26 10:33N 22°10' E 113°35'2423.9
2015-Aug-26 09:32N 22°32' E 113°46'2311.7
2015-Aug-26 07:33N 22°12' E 113°34'1414.2
2015-Aug-26 06:32N 22°24' E 113°42'1 0.9
2015-Aug-26 05:17N 22°25' E 113°43'1621.7
2015-Aug-26 04:33N 22°12' E 113°34'1716.3
2015-Aug-26 03:32N 22°26' E 113°43'12 7.9
2015-Aug-26 02:04N 22°15' E 113°38'5 7.7
2015-Aug-26 01:23N 22°12' E 113°34'2023.6
2015-Aug-26 00:33N 22°29' E 113°44'17 1.3
2015-Aug-25 11:28N 22°13' E 113°38'4 4.7
2015-Aug-25 10:33N 22°10' E 113°35'2424.4
2015-Aug-25 09:33N 22°32' E 113°46'8 6.9
2015-Aug-25 08:26N 22°25' E 113°43'1616.2
2015-Aug-25 07:29N 22°12' E 113°34'2324.1
2015-Aug-25 06:33N 22°31' E 113°46'9 9.2
2015-Aug-25 05:33N 22°23' E 113°42'1313.1
2015-Aug-25 04:32N 22°12' E 113°34'2625.6
2015-Aug-25 03:31N 22°34' E 113°48'2116.3
2015-Aug-25 02:15N 22°15' E 113°38'5 7.7
2015-Aug-25 01:34N 22°12' E 113°34'2121.2
2015-Aug-25 00:33N 22°30' E 113°45'16 1.2
2015-Aug-24 11:27N 22°16' E 113°38'7 8.0
2015-Aug-24 10:34N 22°10' E 113°35'  

Dump ship's entire track history